Time;durP1;ratioP1;P1;durP2;ratioP2;P2;SDS_P1;SDS_P2;PMS_P1;PMS_P2;Temp;Humidity;BMP_temperature;BMP_pressure;BME280_temperature;BME280_humidity;BME280_pressure;Samples;Min_cycle;Max_cycle;Signal;HPM_P1;HPM_P2
2021/07/09 00:02:13;;;;;;;17.77;12.90;;;;;;;15.61;87.57;102284.03;5060366;28;20424;-54
2021/07/09 00:04:41;;;;;;;20.95;15.63;;;;;;;15.61;87.36;102281.22;5071385;28;20048;-54
2021/07/09 00:07:09;;;;;;;20.08;13.85;;;;;;;15.59;87.55;102281.50;5070918;28;20057;-55
2021/07/09 00:09:37;;;;;;;18.95;13.07;;;;;;;15.59;87.61;102283.53;5071181;28;20098;-56
2021/07/09 00:12:05;;;;;;;21.35;15.52;;;;;;;15.59;87.51;102275.09;5067224;28;20048;-52
2021/07/09 00:14:36;;;;;;;19.10;13.77;;;;;;;15.54;87.47;102272.28;5070509;28;20398;-56
2021/07/09 00:17:05;;;;;;;20.33;14.30;;;;;;;15.50;87.44;102272.03;5071072;28;20090;-53
2021/07/09 00:19:35;;;;;;;22.38;15.45;;;;;;;15.47;87.39;102258.56;5071142;28;20045;-50
2021/07/09 00:22:04;;;;;;;22.52;15.85;;;;;;;15.43;87.10;102251.84;5069134;28;20509;-51
2021/07/09 00:24:32;;;;;;;21.85;15.90;;;;;;;15.38;87.13;102261.19;5070583;28;20420;-50
2021/07/09 00:27:03;;;;;;;23.63;16.38;;;;;;;15.35;86.85;102255.34;5067434;28;20048;-51
2021/07/09 00:29:31;;;;;;;22.10;15.03;;;;;;;15.30;86.93;102258.19;5071129;28;20576;-53
2021/07/09 00:31:59;;;;;;;21.95;15.50;;;;;;;15.29;86.92;102254.53;5070702;28;20074;-56
2021/07/09 00:34:27;;;;;;;21.10;15.48;;;;;;;15.28;86.95;102255.66;5070578;28;20094;-51
2021/07/09 00:36:56;;;;;;;21.58;15.50;;;;;;;15.27;86.95;102244.72;5070725;28;20111;-53
2021/07/09 00:39:24;;;;;;;25.45;17.20;;;;;;;15.24;86.96;102242.50;5070919;28;20095;-51
2021/07/09 00:41:52;;;;;;;25.95;18.10;;;;;;;15.20;86.69;102247.03;5069149;28;20078;-50
2021/07/09 00:44:20;;;;;;;22.58;15.90;;;;;;;15.13;87.06;102245.41;5070940;28;20140;-53
2021/07/09 00:46:51;;;;;;;25.35;18.08;;;;;;;15.11;87.48;102247.69;5070846;28;20044;-54
2021/07/09 00:49:20;;;;;;;27.20;17.05;;;;;;;15.10;87.70;102248.81;5070378;28;20041;-55
2021/07/09 00:51:50;;;;;;;25.55;17.52;;;;;;;15.11;87.91;102242.06;5070519;28;20063;-50
2021/07/09 00:54:19;;;;;;;28.92;19.27;;;;;;;15.11;88.17;102229.97;5070775;28;20127;-55
2021/07/09 00:56:47;;;;;;;27.88;19.15;;;;;;;15.09;88.09;102238.72;5072254;28;20139;-55
2021/07/09 00:59:21;;;;;;;22.23;16.10;;;;;;;15.08;88.12;102241.81;5074792;28;20423;-54
2021/07/09 01:01:50;;;;;;;23.55;16.95;;;;;;;15.04;88.33;102241.56;5063607;28;20468;-55
2021/07/09 01:04:18;;;;;;;21.70;14.63;;;;;;;15.04;88.41;102243.53;5063289;28;20044;-55
2021/07/09 01:06:46;;;;;;;19.60;13.73;;;;;;;15.04;88.58;102249.16;5074502;28;20053;-54
2021/07/09 01:09:14;;;;;;;24.77;18.17;;;;;;;15.03;88.42;102247.47;5073890;28;20396;-55
2021/07/09 01:11:48;;;;;;;22.75;15.48;;;;;;;14.97;88.16;102243.91;5074256;28;20098;-52
2021/07/09 01:14:16;;;;;;;26.98;16.00;;;;;;;14.89;88.16;102240.88;5071822;28;20050;-55
2021/07/09 01:16:44;;;;;;;21.25;15.93;;;;;;;14.83;88.10;102245.69;5073460;28;20076;-53
2021/07/09 01:19:15;;;;;;;22.83;16.88;;;;;;;14.76;87.90;102254.47;5073448;28;20136;-52
2021/07/09 01:21:43;;;;;;;21.10;15.05;;;;;;;14.72;88.18;102244.94;5074066;28;20573;-55
2021/07/09 01:24:12;;;;;;;23.58;16.02;;;;;;;14.70;88.22;102255.63;5073655;28;20053;-49
2021/07/09 01:26:41;;;;;;;21.70;14.35;;;;;;;14.70;88.26;102241.59;5074021;28;20080;-54
2021/07/09 01:29:10;;;;;;;22.92;15.77;;;;;;;14.71;88.41;102246.06;5073972;28;20404;-53
2021/07/09 01:31:38;;;;;;;23.75;16.23;;;;;;;14.70;88.18;102244.41;5073561;28;20055;-54
2021/07/09 01:34:06;;;;;;;25.60;17.15;;;;;;;14.66;88.05;102242.47;5074024;28;20061;-51
2021/07/09 01:36:34;;;;;;;22.70;16.02;;;;;;;14.62;88.11;102242.19;5073944;28;20037;-56
2021/07/09 01:39:02;;;;;;;20.92;14.50;;;;;;;14.59;88.14;102248.41;5073286;28;20147;-53
2021/07/09 01:41:31;;;;;;;18.50;13.18;;;;;;;14.59;88.35;102253.22;5073830;28;20077;-54
2021/07/09 01:43:59;;;;;;;25.38;17.83;;;;;;;14.58;88.46;102251.53;5073703;28;20056;-54
2021/07/09 01:46:27;;;;;;;27.48;19.13;;;;;;;14.57;88.42;102256.31;5073176;28;20048;-52
2021/07/09 01:48:55;;;;;;;23.90;16.27;;;;;;;14.56;88.82;102254.63;5073746;28;20063;-53
2021/07/09 01:51:23;;;;;;;27.13;18.80;;;;;;;14.55;89.24;102255.75;5073377;28;20049;-52
2021/07/09 01:53:51;;;;;;;23.23;15.27;;;;;;;14.57;89.72;102270.34;5073469;28;20433;-54
2021/07/09 01:56:18;;;;;;;33.00;21.05;;;;;;;14.58;90.00;102260.81;5073513;28;20069;-54
2021/07/09 01:58:47;;;;;;;28.45;18.60;;;;;;;14.58;90.18;102258.00;5073146;28;20496;-53
2021/07/09 02:01:15;;;;;;;34.78;21.10;;;;;;;14.58;90.58;102257.16;5073781;28;20067;-53
2021/07/09 02:03:43;;;;;;;29.45;18.50;;;;;;;14.57;90.63;102259.13;5073167;28;20044;-53
2021/07/09 02:06:12;;;;;;;29.90;19.75;;;;;;;14.57;90.89;102255.47;5072897;28;20096;-54
2021/07/09 02:08:40;;;;;;;24.63;16.85;;;;;;;14.53;91.29;102249.59;5072545;28;20452;-54
2021/07/09 02:11:07;;;;;;;26.50;16.05;;;;;;;14.53;91.38;102243.13;5073748;28;20037;-51
2021/07/09 02:13:35;;;;;;;22.33;15.73;;;;;;;14.53;91.63;102252.41;5072395;28;20076;-54
2021/07/09 02:16:05;;;;;;;24.27;16.33;;;;;;;14.54;91.72;102244.81;5073219;28;20083;-55
2021/07/09 02:18:33;;;;;;;25.67;17.05;;;;;;;14.51;91.48;102246.22;5073241;28;20118;-54
2021/07/09 02:21:00;;;;;;;18.63;14.02;;;;;;;14.46;91.71;102249.91;5072516;28;20066;-52
2021/07/09 02:23:28;;;;;;;18.20;13.55;;;;;;;14.43;91.90;102244.03;5072856;28;20144;-52
2021/07/09 02:25:56;;;;;;;23.38;16.70;;;;;;;14.42;91.91;102250.78;5069916;28;20080;-54
2021/07/09 02:28:24;;;;;;;21.90;15.68;;;;;;;14.40;91.77;102248.25;5066886;28;20453;-51
2021/07/09 02:30:51;;;;;;;20.83;14.85;;;;;;;14.40;91.87;102241.78;5073133;28;20382;-52
2021/07/09 02:33:20;;;;;;;20.20;14.38;;;;;;;14.41;92.03;102243.47;5072666;28;20059;-52
2021/07/09 02:35:48;;;;;;;18.83;14.25;;;;;;;14.42;92.10;102237.56;5072248;28;20044;-54
2021/07/09 02:38:16;;;;;;;14.35;11.27;;;;;;;14.41;91.83;102246.28;5072636;28;20054;-55
2021/07/09 02:40:44;;;;;;;21.30;14.90;;;;;;;14.38;91.89;102239.28;5072234;28;20050;-51
2021/07/09 02:43:12;;;;;;;17.60;13.00;;;;;;;14.36;91.74;102240.69;5072837;28;20048;-53
2021/07/09 02:45:40;;;;;;;20.33;15.38;;;;;;;14.36;91.87;102246.31;5072832;28;20128;-56
2021/07/09 02:48:17;;;;;;;18.15;13.98;;;;;;;14.33;91.81;102244.09;5071994;28;20477;-50
2021/07/09 02:50:47;;;;;;;16.17;11.80;;;;;;;14.28;91.53;102239.34;5072550;28;20072;-50
2021/07/09 02:53:15;;;;;;;15.43;12.10;;;;;;;14.25;91.42;102241.88;5072442;28;20072;-52
2021/07/09 02:55:42;;;;;;;17.77;11.80;;;;;;;14.23;91.44;102235.72;5071727;28;20045;-55
2021/07/09 02:58:11;;;;;;;17.63;12.55;;;;;;;14.20;91.67;102237.13;5072509;28;20049;-55
2021/07/09 03:00:38;;;;;;;23.08;16.05;;;;;;;14.21;91.51;102235.16;5072375;28;20127;-54
2021/07/09 03:03:06;;;;;;;18.52;13.98;;;;;;;14.19;91.64;102229.81;5071657;28;20470;-51
2021/07/09 03:05:34;;;;;;;24.63;16.95;;;;;;;14.17;91.83;102223.69;5072389;28;20036;-54
2021/07/09 03:08:03;;;;;;;13.63;10.30;;;;;;;14.18;91.80;102228.19;5072244;28;20075;-57
2021/07/09 03:10:31;;;;;;;15.82;11.07;;;;;;;14.18;91.99;102233.78;5071892;28;20050;-49
2021/07/09 03:12:59;;;;;;;20.42;15.38;;;;;;;14.18;91.89;102225.38;5071021;28;20079;-50
2021/07/09 03:15:27;;;;;;;19.38;15.15;;;;;;;14.16;91.82;102227.63;5071801;28;20063;-53
2021/07/09 03:17:55;;;;;;;17.23;12.32;;;;;;;14.14;91.87;102221.47;5071308;28;20094;-50
2021/07/09 03:20:22;;;;;;;24.85;18.90;;;;;;;14.16;92.08;102221.19;5070932;28;20048;-55
2021/07/09 03:22:50;;;;;;;24.63;17.48;;;;;;;14.17;92.28;102228.47;5067977;28;20139;-52
2021/07/09 03:25:19;;;;;;;25.85;18.23;;;;;;;14.18;92.45;102221.72;5070338;28;20486;-54
2021/07/09 03:27:47;;;;;;;23.98;17.55;;;;;;;14.20;92.68;102228.69;5071884;28;20040;-50
2021/07/09 03:30:15;;;;;;;31.10;20.77;;;;;;;14.21;92.58;102227.56;5070954;28;20468;-51
2021/07/09 03:32:43;;;;;;;23.35;15.82;;;;;;;14.22;92.78;102226.44;5071263;28;20071;-57
2021/07/09 03:35:12;;;;;;;31.30;21.35;;;;;;;14.24;93.14;102221.38;5070343;28;20052;-51
2021/07/09 03:37:39;;;;;;;22.55;16.23;;;;;;;14.25;93.31;102220.25;5069905;28;20127;-51
2021/07/09 03:40:09;;;;;;;27.25;19.58;;;;;;;14.27;93.35;102217.16;5071619;28;20124;-50
2021/07/09 03:42:38;;;;;;;23.45;16.88;;;;;;;14.28;93.49;102222.50;5071401;28;20075;-57
2021/07/09 03:45:07;;;;;;;25.70;18.27;;;;;;;14.28;93.59;102221.66;5070986;28;20135;-52
2021/07/09 03:47:35;;;;;;;20.98;15.35;;;;;;;14.29;93.76;102214.91;5071511;28;20440;-54
2021/07/09 03:50:03;;;;;;;23.67;18.52;;;;;;;14.30;93.63;102225.84;5071389;28;20135;-51
2021/07/09 03:52:31;;;;;;;26.50;17.92;;;;;;;14.28;93.72;102218.84;5070895;28;20098;-50
2021/07/09 03:54:59;;;;;;;19.75;14.00;;;;;;;14.26;93.92;102223.91;5060511;28;20464;-55
2021/07/09 03:57:27;;;;;;;23.65;17.02;;;;;;;14.25;94.00;102219.41;5071233;28;20048;-53
2021/07/09 03:59:56;;;;;;;26.65;19.20;;;;;;;14.25;94.19;102217.44;5070970;28;20139;-53
2021/07/09 04:02:24;;;;;;;22.60;16.45;;;;;;;14.25;94.30;102222.22;5071097;28;20045;-54
2021/07/09 04:04:51;;;;;;;19.77;14.35;;;;;;;14.25;94.45;102223.06;5067915;28;20124;-52
2021/07/09 04:07:19;;;;;;;25.08;18.10;;;;;;;14.23;94.57;102216.06;5070629;28;20479;-52
2021/07/09 04:09:47;;;;;;;25.08;17.35;;;;;;;14.23;94.62;102222.50;5071029;28;20060;-54
2021/07/09 04:12:15;;;;;;;28.40;19.17;;;;;;;14.23;94.62;102216.91;5070497;28;20555;-51
2021/07/09 04:14:42;;;;;;;24.50;17.38;;;;;;;14.24;94.71;102223.34;5069692;28;20573;-55
2021/07/09 04:17:12;;;;;;;26.35;18.02;;;;;;;14.22;94.87;102226.44;5071069;28;20524;-48
2021/07/09 04:19:39;;;;;;;23.17;16.38;;;;;;;14.21;94.78;102224.78;5070308;28;20135;-49
2021/07/09 04:22:08;;;;;;;28.70;18.95;;;;;;;14.21;95.06;102223.94;5070780;28;20469;-51
2021/07/09 04:24:36;;;;;;;25.80;17.33;;;;;;;14.21;95.17;102226.72;5071103;28;20040;-52
2021/07/09 04:27:04;;;;;;;22.17;14.82;;;;;;;14.25;95.50;102237.09;5070384;28;20079;-48
2021/07/09 04:29:32;;;;;;;30.50;19.58;;;;;;;14.28;95.57;102241.31;5070853;28;20059;-52
2021/07/09 04:31:59;;;;;;;26.10;15.77;;;;;;;14.31;95.77;102233.13;5071206;28;20123;-52
2021/07/09 04:34:29;;;;;;;23.40;16.38;;;;;;;14.35;95.98;102242.66;5070013;28;20045;-55
2021/07/09 04:36:57;;;;;;;22.67;15.80;;;;;;;14.39;95.90;102237.28;5070903;28;20106;-56
2021/07/09 04:39:25;;;;;;;22.42;15.30;;;;;;;14.44;96.17;102234.47;5070765;28;20052;-57
2021/07/09 04:41:53;;;;;;;17.83;11.85;;;;;;;14.49;96.20;102242.88;5070389;28;20488;-54
2021/07/09 04:44:21;;;;;;;21.95;16.30;;;;;;;14.53;96.09;102227.13;5070986;28;20112;-54
2021/07/09 04:46:48;;;;;;;17.83;13.45;;;;;;;14.58;96.05;102243.09;5070720;28;20139;-54
2021/07/09 04:49:16;;;;;;;25.35;17.45;;;;;;;14.60;96.06;102238.00;5069953;28;20374;-52
2021/07/09 04:51:46;;;;;;;24.10;17.92;;;;;;;14.61;95.96;102237.72;5070791;28;20332;-52
2021/07/09 04:54:14;;;;;;;20.20;15.43;;;;;;;14.63;96.11;102237.41;5069054;28;20048;-55
2021/07/09 04:56:42;;;;;;;22.67;16.23;;;;;;;14.64;95.92;102237.13;5070707;28;20519;-56
2021/07/09 04:59:09;;;;;;;28.08;19.40;;;;;;;14.66;96.16;102234.88;5069554;28;20083;-57
2021/07/09 05:01:37;;;;;;;26.48;18.50;;;;;;;14.67;96.26;102239.38;5070040;28;20179;-52
2021/07/09 05:04:07;;;;;;;26.83;18.33;;;;;;;14.68;96.36;102241.03;5070356;28;20041;-53
2021/07/09 05:06:35;;;;;;;26.45;19.85;;;;;;;14.71;96.44;102239.63;5070280;28;20457;-53
2021/07/09 05:09:05;;;;;;;24.67;17.42;;;;;;;14.75;96.50;102233.13;5069698;28;20131;-56
2021/07/09 05:11:34;;;;;;;29.00;19.65;;;;;;;14.78;96.56;102224.09;5069344;28;20275;-53
2021/07/09 05:14:02;;;;;;;30.13;19.58;;;;;;;14.83;96.82;102232.47;5070405;28;20053;-53
2021/07/09 05:16:31;;;;;;;29.70;19.55;;;;;;;14.89;96.79;102236.09;5069820;28;20063;-52
2021/07/09 05:18:58;;;;;;;27.08;18.20;;;;;;;14.94;96.74;102241.66;5070237;28;20059;-54
2021/07/09 05:21:26;;;;;;;26.98;18.35;;;;;;;15.01;96.74;102232.88;5070325;28;20524;-53
2021/07/09 05:23:55;;;;;;;26.67;18.90;;;;;;;15.06;96.81;102233.66;5070199;28;20052;-51
2021/07/09 05:26:24;;;;;;;27.55;17.83;;;;;;;15.11;96.97;102244.03;5070192;28;20094;-53
2021/07/09 05:28:53;;;;;;;26.55;18.65;;;;;;;15.16;96.96;102241.19;5070050;28;20045;-53
2021/07/09 05:31:21;;;;;;;29.48;20.67;;;;;;;15.21;96.89;102243.91;5068789;28;20123;-50
2021/07/09 05:33:49;;;;;;;28.85;19.30;;;;;;;15.28;97.12;102241.59;5070184;28;20106;-55
2021/07/09 05:36:17;;;;;;;23.27;16.90;;;;;;;15.36;97.17;102245.75;5070276;28;20049;-52
2021/07/09 05:38:45;;;;;;;33.78;22.13;;;;;;;15.44;97.22;102242.28;5069855;28;20087;-53
2021/07/09 05:41:12;;;;;;;27.83;18.17;;;;;;;15.52;97.26;102241.63;5070157;28;20108;-54
2021/07/09 05:43:42;;;;;;;28.05;19.42;;;;;;;15.61;97.22;102244.63;5071428;28;20133;-53
2021/07/09 05:46:10;;;;;;;23.58;17.20;;;;;;;15.72;97.30;102243.41;5073902;28;20482;-53
2021/07/09 05:48:38;;;;;;;26.95;20.38;;;;;;;15.84;97.34;102246.59;5073882;28;20488;-53
2021/07/09 05:51:05;;;;;;;26.67;19.25;;;;;;;15.98;97.06;102247.56;5073014;28;20563;-54
2021/07/09 05:53:33;;;;;;;26.17;17.75;;;;;;;16.15;97.16;102245.06;5073744;28;20146;-56
2021/07/09 05:56:01;;;;;;;26.38;17.90;;;;;;;16.36;96.65;102241.97;5073166;28;20098;-57
2021/07/09 05:58:29;;;;;;;29.80;20.98;;;;;;;16.56;96.40;102244.47;5071839;28;20060;-54
2021/07/09 06:00:58;;;;;;;23.60;18.45;;;;;;;16.75;95.84;102245.31;5073588;28;20460;-55
2021/07/09 06:03:26;;;;;;;21.23;16.05;;;;;;;16.96;95.43;102251.44;5073277;28;20072;-56
2021/07/09 06:05:54;;;;;;;23.45;16.38;;;;;;;17.18;94.75;102253.59;5072919;28;20505;-55
2021/07/09 06:08:21;;;;;;;20.65;15.80;;;;;;;17.41;94.01;102252.56;5070154;28;20076;-56
2021/07/09 06:10:49;;;;;;;21.13;15.10;;;;;;;17.60;93.04;102243.16;5073525;28;20131;-52
2021/07/09 06:13:17;;;;;;;16.27;12.73;;;;;;;17.79;92.38;102241.09;5072907;28;20135;-55
2021/07/09 06:15:45;;;;;;;16.73;11.85;;;;;;;17.90;91.12;102249.06;5073321;28;20044;-56
2021/07/09 06:18:21;;;;;;;17.30;12.18;;;;;;;17.95;90.56;102248.13;5073214;28;20432;-55
2021/07/09 06:20:49;;;;;;;16.90;11.32;;;;;;;18.06;90.13;102245.91;5073053;28;20052;-57
2021/07/09 06:23:17;;;;;;;11.35;8.00;;;;;;;18.15;89.29;102244.03;5073341;28;20143;-55
2021/07/09 06:25:45;;;;;;;14.10;8.70;;;;;;;18.24;88.63;102242.94;5072611;28;20052;-55
2021/07/09 06:28:13;;;;;;;9.48;7.30;;;;;;;18.36;87.60;102239.56;5073052;28;20043;-55
2021/07/09 06:30:40;;;;;;;7.72;6.18;;;;;;;18.43;86.97;102239.13;5073111;28;20052;-51
2021/07/09 06:33:09;;;;;;;8.38;5.93;;;;;;;18.40;86.46;102234.09;5072229;28;20068;-52
2021/07/09 06:35:38;;;;;;;8.35;5.88;;;;;;;18.32;85.83;102232.03;5072567;28;20102;-56
2021/07/09 06:38:06;;;;;;;9.70;6.55;;;;;;;18.26;86.30;102231.31;5072937;28;20048;-53
2021/07/09 06:40:35;;;;;;;9.00;6.75;;;;;;;18.44;85.97;102237.97;5072471;28;20074;-53
2021/07/09 06:43:03;;;;;;;10.73;5.70;;;;;;;18.71;84.71;102243.56;5072888;28;20519;-56
2021/07/09 06:45:31;;;;;;;8.02;4.95;;;;;;;18.76;83.35;102243.44;5072756;28;20078;-53
2021/07/09 06:47:59;;;;;;;7.43;4.97;;;;;;;18.69;83.01;102251.53;5071971;28;20056;-57
2021/07/09 06:50:27;;;;;;;7.20;5.05;;;;;;;18.60;82.95;102242.13;5072840;28;20071;-55
2021/07/09 06:52:56;;;;;;;8.38;5.15;;;;;;;18.61;83.42;102240.13;5072162;28;20489;-54
2021/07/09 06:55:24;;;;;;;8.50;5.10;;;;;;;18.61;82.70;102240.97;5071712;28;20068;-55
2021/07/09 06:57:52;;;;;;;7.57;5.60;;;;;;;18.53;82.58;102238.88;5072449;28;20055;-53
2021/07/09 07:00:20;;;;;;;7.72;5.15;;;;;;;18.52;82.78;102240.03;5072253;28;20040;-55
2021/07/09 07:02:49;;;;;;;8.88;5.38;;;;;;;18.68;82.50;102246.19;5072424;28;20048;-56
2021/07/09 07:05:17;;;;;;;8.00;4.47;;;;;;;18.95;82.14;102248.06;5069729;28;20106;-57
2021/07/09 07:07:45;;;;;;;8.80;4.65;;;;;;;19.23;80.91;102253.22;5072522;28;20091;-58
2021/07/09 07:10:15;;;;;;;8.52;4.78;;;;;;;19.35;80.06;102246.97;5071540;28;20052;-56
2021/07/09 07:12:45;;;;;;;7.45;4.68;;;;;;;19.47;79.57;102247.19;5072167;28;20072;-60
2021/07/09 07:15:14;;;;;;;8.18;4.65;;;;;;;19.64;78.64;102251.28;5071584;28;20098;-59
2021/07/09 07:17:42;;;;;;;7.38;4.80;;;;;;;19.71;77.63;102241.16;5072322;28;20051;-59
2021/07/09 07:20:11;;;;;;;8.85;4.65;;;;;;;19.87;77.67;102248.06;5072041;28;20139;-60
2021/07/09 07:22:39;;;;;;;8.23;4.40;;;;;;;20.04;76.54;102252.94;5071318;28;20568;-59
2021/07/09 07:25:07;;;;;;;7.20;4.63;;;;;;;20.21;76.59;102252.97;5071550;28;20048;-60
2021/07/09 07:27:37;;;;;;;6.10;4.45;;;;;;;20.48;76.66;102260.38;5072125;28;20079;-60
2021/07/09 07:30:06;;;;;;;7.50;4.25;;;;;;;20.66;75.06;102266.88;5071061;28;20062;-60
2021/07/09 07:32:33;;;;;;;7.63;4.47;;;;;;;20.61;74.32;102269.88;5071847;28;20060;-60
2021/07/09 07:35:01;;;;;;;10.20;5.25;;;;;;;20.55;74.54;102269.22;5071882;28;20033;-59
2021/07/09 07:37:29;;;;;;;10.38;5.72;;;;;;;20.63;75.15;102271.22;5071297;28;20392;-60
2021/07/09 07:39:57;;;;;;;10.23;5.13;;;;;;;20.76;73.90;102271.41;5071461;28;20068;-60
2021/07/09 07:42:25;;;;;;;6.97;4.53;;;;;;;20.75;73.69;102269.72;5071597;28;20546;-60
2021/07/09 07:44:54;;;;;;;8.63;4.55;;;;;;;20.65;73.28;102276.56;5070886;28;20082;-60
2021/07/09 07:47:22;;;;;;;8.13;5.18;;;;;;;20.56;73.45;102278.56;5071961;28;20044;-60
2021/07/09 07:49:50;;;;;;;9.40;4.95;;;;;;;20.46;73.13;102276.88;5070329;28;20052;-60
2021/07/09 07:52:18;;;;;;;8.32;5.43;;;;;;;20.23;73.50;102272.47;5070152;28;20493;-60
2021/07/09 07:54:46;;;;;;;7.93;5.80;;;;;;;20.14;74.27;102272.47;5071274;28;20050;-60
2021/07/09 07:57:14;;;;;;;9.63;5.53;;;;;;;20.15;74.30;102281.81;5070909;28;20068;-59
2021/07/09 07:59:45;;;;;;;6.65;4.68;;;;;;;20.26;73.59;102284.00;5071537;28;20139;-60
2021/07/09 08:02:14;;;;;;;9.05;5.70;;;;;;;20.37;73.06;102275.22;5068696;28;20048;-60
2021/07/09 08:04:42;;;;;;;10.80;6.32;;;;;;;20.54;73.06;102275.22;5069482;28;20135;-59
2021/07/09 08:07:10;;;;;;;7.85;5.68;;;;;;;20.70;72.33;102272.72;5070465;28;20564;-60
2021/07/09 08:09:38;;;;;;;8.82;5.97;;;;;;;20.73;72.20;102266.38;5071063;28;20075;-59
2021/07/09 08:12:07;;;;;;;8.48;5.57;;;;;;;20.75;72.05;102269.72;5070599;28;20046;-59
2021/07/09 08:14:35;;;;;;;10.40;6.30;;;;;;;20.89;72.33;102273.22;5071284;28;20083;-60
2021/07/09 08:17:03;;;;;;;8.40;5.80;;;;;;;21.01;72.20;102266.84;5070673;28;20253;-60
2021/07/09 08:19:33;;;;;;;9.35;6.15;;;;;;;20.93;72.31;102277.06;5070506;28;20413;-61
2021/07/09 08:22:01;;;;;;;9.50;5.63;;;;;;;20.85;71.85;102273.06;5071297;28;20045;-61
2021/07/09 08:24:29;;;;;;;9.95;6.50;;;;;;;20.95;72.04;102264.22;5070922;28;20043;-60
2021/07/09 08:26:57;;;;;;;10.25;6.78;;;;;;;21.11;71.67;102275.03;5070537;28;20044;-60
2021/07/09 08:29:26;;;;;;;9.77;6.82;;;;;;;21.10;70.90;102264.84;5071047;28;20041;-59
2021/07/09 08:31:54;;;;;;;11.50;5.78;;;;;;;20.99;70.57;102259.50;5069646;28;20079;-59
2021/07/09 08:34:22;;;;;;;9.07;6.20;;;;;;;21.02;71.25;102257.16;5069978;28;20481;-60
2021/07/09 08:36:52;;;;;;;8.55;5.65;;;;;;;20.96;70.97;102259.38;5070736;28;20061;-59
2021/07/09 08:39:20;;;;;;;8.32;5.57;;;;;;;20.89;71.06;102265.53;5070465;28;20044;-59
2021/07/09 08:41:49;;;;;;;9.20;5.90;;;;;;;20.85;70.94;102261.69;5070664;28;20043;-60
2021/07/09 08:44:17;;;;;;;7.97;5.28;;;;;;;20.86;70.99;102262.53;5070880;28;20068;-60
2021/07/09 08:46:45;;;;;;;8.27;6.13;;;;;;;20.83;70.87;102264.03;5068933;28;20064;-59
2021/07/09 08:49:15;;;;;;;8.00;5.68;;;;;;;20.80;71.08;102261.88;5070775;28;20036;-62
2021/07/09 08:51:44;;;;;;;7.15;5.10;;;;;;;20.80;71.09;102259.03;5070727;28;20159;-60
2021/07/09 08:54:15;;;;;;;6.53;5.18;;;;;;;20.76;70.83;102262.88;5069946;28;20049;-59
2021/07/09 08:56:43;;;;;;;8.63;5.68;;;;;;;20.65;71.18;102265.22;5070699;28;20322;-60
2021/07/09 08:59:11;;;;;;;8.20;6.35;;;;;;;20.57;72.05;102263.22;5070505;28;20140;-60
2021/07/09 09:01:49;;;;;;;7.38;5.05;;;;;;;20.50;71.86;102268.56;5070375;28;20094;-60
2021/07/09 09:04:25;;;;;;;7.13;5.38;;;;;;;20.42;72.24;102272.19;5068084;28;20044;-59
2021/07/09 09:06:58;;;;;;;8.13;5.47;;;;;;;20.37;72.08;102267.53;5070572;28;20127;-60
2021/07/09 09:09:27;;;;;;;10.30;7.15;;;;;;;20.31;72.51;102260.31;5069789;28;20134;-60
2021/07/09 09:12:03;;;;;;;8.68;5.65;;;;;;;20.34;73.15;102265.34;5070861;28;20142;-60
2021/07/09 09:14:34;;;;;;;8.85;6.10;;;;;;;20.23;73.00;102267.63;5068883;28;20468;-59
2021/07/09 09:17:02;;;;;;;7.47;5.50;;;;;;;20.12;73.46;102266.28;5065128;28;20049;-60
2021/07/09 09:19:30;;;;;;;8.43;6.03;;;;;;;20.01;73.53;102264.91;5073619;28;20048;-60
2021/07/09 09:22:12;;;;;;;10.57;6.90;;;;;;;19.93;73.86;102255.25;5073641;28;20048;-59
2021/07/09 09:24:41;;;;;;;11.05;6.68;;;;;;;19.92;74.28;102264.06;5074286;28;20534;-60
2021/07/09 09:27:20;;;;;;;10.43;6.28;;;;;;;19.89;74.30;102265.56;5074127;28;20055;-60
2021/07/09 09:29:48;;;;;;;10.10;6.43;;;;;;;19.83;74.69;102268.84;5073770;28;20110;-60
2021/07/09 09:32:16;;;;;;;9.93;6.45;;;;;;;19.79;75.01;102273.50;5073979;28;20048;-60
2021/07/09 09:34:46;;;;;;;10.13;6.10;;;;;;;19.83;74.86;102271.69;5074132;28;20557;-61
2021/07/09 09:37:19;;;;;;;7.43;5.70;;;;;;;19.83;75.06;102277.34;5073465;28;20522;-61
2021/07/09 09:39:49;;;;;;;7.55;5.68;;;;;;;19.80;74.76;102276.00;5074045;28;20049;-60
2021/07/09 09:42:21;;;;;;;9.25;6.57;;;;;;;19.68;74.16;102283.47;5072820;28;20052;-60
2021/07/09 09:44:50;;;;;;;8.90;5.80;;;;;;;19.52;75.02;102283.91;5073327;28;20163;-60
2021/07/09 09:47:20;;;;;;;9.98;5.68;;;;;;;19.50;75.38;102280.56;5073709;28;21327;-59
2021/07/09 09:49:52;;;;;;;10.02;6.43;;;;;;;19.43;75.31;102280.16;5073421;28;20067;-60
2021/07/09 09:52:34;;;;;;;10.15;6.50;;;;;;;19.43;75.13;102282.97;5073987;28;20052;-60
2021/07/09 09:55:05;;;;;;;10.85;6.80;;;;;;;19.42;75.58;102283.28;5073768;28;20500;-60
2021/07/09 09:57:33;;;;;;;8.07;6.28;;;;;;;19.37;76.11;102274.97;5073120;28;20124;-60
2021/07/09 10:00:01;;;;;;;10.75;6.90;;;;;;;19.36;76.18;102279.78;5073609;28;20440;-61
2021/07/09 10:02:37;;;;;;;13.35;6.25;;;;;;;19.25;76.18;102284.88;5073530;28;20044;-60
2021/07/09 10:05:05;;;;;;;11.60;6.25;;;;;;;19.14;76.16;102280.66;5072920;28;20128;-60
2021/07/09 10:07:36;;;;;;;11.15;6.22;;;;;;;18.99;76.82;102283.00;5073542;28;20079;-59
2021/07/09 10:10:06;;;;;;;10.88;6.82;;;;;;;18.92;76.94;102283.47;5073809;28;20063;-59
2021/07/09 10:12:55;;;;;;;8.10;6.18;;;;;;;18.74;78.01;102278.84;5064991;28;20386;-59
2021/07/09 10:15:25;;;;;;;11.23;6.85;;;;;;;18.66;78.35;102279.59;5073233;28;20045;-61
2021/07/09 10:17:55;;;;;;;10.80;7.05;;;;;;;18.59;78.60;102280.03;5072627;28;20037;-60
2021/07/09 10:20:24;;;;;;;10.23;6.78;;;;;;;18.57;78.52;102283.16;5071605;28;20080;-59
2021/07/09 10:22:53;;;;;;;11.05;6.90;;;;;;;18.54;78.66;102280.13;5062269;28;20730;-60
2021/07/09 10:25:23;;;;;;;9.25;6.60;;;;;;;18.51;79.08;102275.13;5072456;28;20079;-61
2021/07/09 10:27:52;;;;;;;10.48;6.53;;;;;;;18.54;79.07;102268.84;5073455;28;20048;-60
2021/07/09 10:30:20;;;;;;;10.05;6.68;;;;;;;18.60;79.07;102273.22;5072482;28;20040;-59
2021/07/09 10:32:50;;;;;;;8.27;6.07;;;;;;;18.71;79.25;102279.47;5072336;28;20805;-59
2021/07/09 10:35:35;;;;;;;9.18;5.65;;;;;;;18.78;78.75;102280.72;5073274;28;20445;-59
2021/07/09 10:38:14;;;;;;;8.73;6.30;;;;;;;18.88;78.63;102279.63;5072917;28;20171;-59
2021/07/09 10:40:43;;;;;;;11.05;6.32;;;;;;;18.96;78.27;102278.88;5068868;28;20094;-60
2021/07/09 10:43:11;;;;;;;11.60;6.50;;;;;;;18.95;77.54;102274.34;5072884;28;20103;-59
2021/07/09 10:45:39;;;;;;;9.05;5.85;;;;;;;18.97;77.68;102266.38;5072606;28;20472;-60
2021/07/09 10:48:10;;;;;;;10.70;6.22;;;;;;;19.04;78.03;102266.75;5071125;28;20050;-60
2021/07/09 10:50:41;;;;;;;10.23;6.63;;;;;;;19.19;77.04;102262.69;5071573;28;20080;-61
2021/07/09 10:53:20;;;;;;;10.43;6.17;;;;;;;19.26;77.29;102271.56;5071907;28;20043;-60
2021/07/09 10:55:56;;;;;;;12.40;7.35;;;;;;;19.28;76.86;102266.41;5072441;28;20059;-60
2021/07/09 10:58:40;;;;;;;11.02;6.72;;;;;;;19.30;76.87;102266.09;5072309;28;20037;-61
2021/07/09 11:01:23;;;;;;;10.15;6.93;;;;;;;19.27;76.28;102262.75;5071843;28;20037;-60
2021/07/09 11:04:09;;;;;;;8.90;6.53;;;;;;;19.22;76.17;102262.03;5069674;28;20143;-61
2021/07/09 11:06:43;;;;;;;11.10;6.72;;;;;;;19.23;76.81;102258.03;5070093;28;20574;-60
2021/07/09 11:09:16;;;;;;;9.02;6.47;;;;;;;19.29;77.02;102256.75;5071972;28;20474;-60
2021/07/09 11:11:51;;;;;;;11.18;7.18;;;;;;;19.28;76.76;102257.91;5069501;28;20048;-61
2021/07/09 11:14:33;;;;;;;11.48;7.18;;;;;;;19.32;76.31;102258.94;5071538;28;20072;-60
2021/07/09 11:17:15;;;;;;;11.23;7.00;;;;;;;19.28;76.55;102258.75;5070417;28;20036;-61
2021/07/09 11:19:48;;;;;;;12.37;7.53;;;;;;;19.26;76.68;102263.06;5061366;28;20135;-60
2021/07/09 11:22:21;;;;;;;11.88;7.50;;;;;;;19.32;76.81;102264.59;5071609;28;20283;-61
2021/07/09 11:24:56;;;;;;;10.52;7.78;;;;;;;19.31;76.45;102264.94;5071624;28;20045;-61